Time;durP1;ratioP1;P1;durP2;ratioP2;P2;SDS_P1;SDS_P2;PMS_P1;PMS_P2;Temp;Humidity;BMP_temperature;BMP_pressure;BME280_temperature;BME280_humidity;BME280_pressure;Samples;Min_cycle;Max_cycle;Signal;HPM_P1;HPM_P2
2022/03/18 00:01:10;;;;;;;;;;;12.50;46.90;;;10.84;49.49;103186.69;8337346;28;20388;-79
2022/03/18 00:05:34;;;;;;;;;;;12.50;46.90;;;10.91;49.75;103214.44;8350389;28;20327;-79
2022/03/18 00:09:56;;;;;;;;;;;12.50;47.00;;;10.84;49.17;103215.44;8340315;28;20296;-79
2022/03/18 00:14:19;;;;;;;;;;;12.50;47.20;;;10.86;49.79;103226.72;8364746;28;20392;-79
2022/03/18 00:18:41;;;;;;;;;;;12.40;47.30;;;10.78;49.78;103215.53;8356219;28;20196;-79
2022/03/18 00:23:02;;;;;;;;;;;12.40;47.20;;;10.72;49.61;103218.22;8360436;28;19920;-79
2022/03/18 00:27:26;;;;;;;;;;;12.30;47.10;;;10.52;49.21;103187.19;8343540;28;20003;-79
2022/03/18 00:31:48;;;;;;;;;;;12.30;47.00;;;10.80;49.55;103247.72;8361669;28;20012;-79
2022/03/18 00:36:09;;;;;;;;;;;12.30;47.00;;;10.79;49.36;103252.09;8354750;28;20008;-79
2022/03/18 00:40:31;;;;;;;;;;;12.30;47.10;;;10.71;49.42;103237.41;8355164;28;19921;-79
2022/03/18 00:44:53;;;;;;;;;;;12.40;47.00;;;10.67;49.84;103243.59;8345558;28;20003;-79
2022/03/18 00:53:54;;;;;;;;;;;12.30;46.90;;;10.71;49.63;103263.56;8341633;28;20356;-79
2022/03/18 00:58:16;;;;;;;;;;;12.30;46.90;;;10.52;50.21;103236.81;8345048;28;19925;-79
2022/03/18 01:02:38;;;;;;;;;;;12.10;47.20;;;10.62;50.04;103260.19;8327940;28;19947;-79
2022/03/18 01:06:59;;;;;;;;;;;12.30;47.00;;;10.70;49.58;103277.50;8356811;28;20007;-79
2022/03/18 01:11:21;;;;;;;;;;;12.30;47.10;;;10.64;49.72;103268.03;8344864;28;20020;-79
2022/03/18 01:15:42;;;;;;;;;;;12.20;47.10;;;10.66;49.53;103275.81;8351493;28;19999;-80
2022/03/18 01:20:04;;;;;;;;;;;12.10;46.90;;;10.62;49.95;103285.47;8342468;28;20011;-79
2022/03/18 01:24:26;;;;;;;;;;;12.20;47.00;;;10.63;49.26;103288.03;8337806;28;20007;-80
2022/03/18 01:28:47;;;;;;;;;;;12.20;46.90;;;10.52;49.90;103274.25;8350142;28;20011;-79
2022/03/18 01:33:09;;;;;;;;;;;12.20;47.20;;;10.61;49.48;103300.28;8359714;28;20011;-79
2022/03/18 01:37:31;;;;;;;;;;;12.10;47.10;;;10.53;49.82;103286.47;8344859;28;19916;-79
2022/03/18 01:41:52;;;;;;;;;;;12.20;47.50;;;10.57;49.49;103301.19;8353200;28;19927;-79
2022/03/18 01:46:16;;;;;;;;;;;12.10;47.30;;;10.50;49.31;103296.94;8360568;28;20015;-79
2022/03/18 01:50:40;;;;;;;;;;;12.10;47.20;;;10.29;49.95;103264.13;8343412;28;19940;-79
2022/03/18 01:55:02;;;;;;;;;;;12.10;47.20;;;10.46;49.58;103295.25;8347051;28;20003;-79
2022/03/18 01:59:23;;;;;;;;;;;12.10;47.20;;;10.56;49.61;103317.75;8339222;28;20011;-79
2022/03/18 02:03:46;;;;;;;;;;;12.00;47.50;;;10.51;50.24;103309.13;8354672;28;19925;-79
2022/03/18 02:08:08;;;;;;;;;;;12.10;47.60;;;10.49;49.56;103305.66;8353800;28;20390;-79
2022/03/18 02:12:30;;;;;;;;;;;11.90;48.00;;;10.44;50.02;103301.38;8328490;28;20341;-79
2022/03/18 02:16:51;;;;;;;;;;;11.80;47.50;;;10.30;50.02;103288.50;8342996;28;20035;-79
2022/03/18 02:21:14;;;;;;;;;;;12.00;47.50;;;10.33;49.68;103301.53;8359767;28;20019;-79
2022/03/18 02:25:35;;;;;;;;;;;11.90;47.50;;;10.43;50.04;103321.41;8337665;28;20021;-79
2022/03/18 02:29:57;;;;;;;;;;;12.00;47.90;;;10.31;49.42;103311.09;8356840;28;20015;-79
2022/03/18 02:34:19;;;;;;;;;;;11.70;47.70;;;10.34;49.99;103325.03;8347977;28;20011;-79
2022/03/18 02:38:41;;;;;;;;;;;12.00;47.70;;;10.38;49.94;103334.53;8354606;28;20019;-79
2022/03/18 02:43:03;;;;;;;;;;;12.00;47.80;;;10.40;50.12;103342.38;8353309;28;19927;-79
2022/03/18 02:47:25;;;;;;;;;;;11.70;47.60;;;10.26;50.16;103329.44;8366041;28;19999;-79
2022/03/18 02:51:46;;;;;;;;;;;12.00;48.00;;;10.11;50.12;103309.56;8342490;28;19917;-79
2022/03/18 02:56:08;;;;;;;;;;;11.70;47.70;;;10.19;50.02;103333.84;8356232;28;20027;-78
2022/03/18 03:00:29;;;;;;;;;;;11.90;48.20;;;10.22;50.09;103352.97;8343796;28;20007;-78
2022/03/18 03:09:31;;;;;;;;;;;11.90;48.00;;;10.17;50.23;103366.94;8342945;28;20016;-77
2022/03/18 03:13:52;;;;;;;;;;;11.50;48.40;;;10.07;49.85;103359.22;8361622;28;20015;-78
2022/03/18 03:18:14;;;;;;;;;;;11.70;48.70;;;10.17;49.88;103389.59;8340770;28;20007;-78
2022/03/18 03:22:36;;;;;;;;;;;11.80;48.70;;;10.12;50.40;103389.63;8359567;28;19921;-78
2022/03/18 03:26:57;;;;;;;;;;;11.80;48.90;;;9.97;50.07;103368.91;8357215;28;20008;-78
2022/03/18 03:31:19;;;;;;;;;;;11.80;49.20;;;9.97;50.02;103376.75;8363017;28;20027;-78
2022/03/18 03:35:41;;;;;;;;;;;11.80;48.40;;;10.13;50.43;103395.75;8349815;28;20469;-78
2022/03/18 03:40:03;;;;;;;;;;;11.40;48.30;;;10.04;50.34;103394.06;8364076;28;20011;-78
2022/03/18 03:44:25;;;;;;;;;;;11.70;48.30;;;10.07;50.17;103407.13;8323803;28;19922;-78
2022/03/18 03:48:47;;;;;;;;;;;11.70;48.20;;;10.14;49.88;103424.44;8364841;28;19921;-78
2022/03/18 03:53:09;;;;;;;;;;;11.70;48.30;;;10.05;50.38;103429.75;8348197;28;20023;-78
2022/03/18 03:57:31;;;;;;;;;;;11.70;47.90;;;10.14;50.08;103447.94;8350386;28;20003;-78
2022/03/18 04:01:52;;;;;;;;;;;11.70;48.00;;;10.07;50.55;103437.56;8354008;28;19982;-78
2022/03/18 04:06:15;;;;;;;;;;;11.80;47.80;;;10.03;49.74;103430.63;8355552;28;20008;-78
2022/03/18 04:10:42;;;;;;;;;;;11.70;47.50;;;10.06;50.24;103441.91;8345939;28;19931;-78
2022/03/18 04:15:04;;;;;;;;;;;11.70;48.20;;;10.08;50.47;103445.38;8352135;28;19924;-78
2022/03/18 04:19:26;;;;;;;;;;;11.70;47.60;;;10.04;50.42;103442.81;8338388;28;19923;-78
2022/03/18 04:23:48;;;;;;;;;;;11.80;47.50;;;10.07;49.91;103448.88;8342864;28;19936;-78
2022/03/18 04:28:09;;;;;;;;;;;11.70;47.50;;;10.10;50.24;103461.91;8337753;28;20008;-78
2022/03/18 04:32:31;;;;;;;;;;;11.60;47.40;;;10.09;50.01;103456.69;8354821;28;20425;-78
2022/03/18 04:36:52;;;;;;;;;;;11.80;47.90;;;10.00;50.49;103448.94;8358006;28;20370;-78
2022/03/18 04:41:14;;;;;;;;;;;11.80;47.50;;;9.93;50.19;103445.50;8361332;28;19920;-78
2022/03/18 04:45:36;;;;;;;;;;;11.70;47.60;;;9.94;50.10;103453.34;8346226;28;20011;-78
2022/03/18 04:49:58;;;;;;;;;;;11.70;47.40;;;9.96;50.50;103468.97;8361651;28;20008;-78
2022/03/18 04:54:19;;;;;;;;;;;11.70;47.20;;;10.00;49.92;103488.97;8360314;28;20035;-78
2022/03/18 04:58:41;;;;;;;;;;;11.70;47.40;;;10.09;50.11;103514.13;8356029;28;19999;-78
2022/03/18 05:03:03;;;;;;;;;;;11.70;47.50;;;9.97;49.87;103499.44;8350862;28;19921;-78
2022/03/18 05:07:25;;;;;;;;;;;11.70;47.70;;;10.07;50.44;103513.25;8355405;28;20008;-78
2022/03/18 05:11:46;;;;;;;;;;;11.60;47.50;;;9.91;49.80;103499.47;8348683;28;20066;-78
2022/03/18 05:16:08;;;;;;;;;;;11.70;47.50;;;9.98;49.85;103522.03;8356383;28;20362;-78
2022/03/18 05:20:30;;;;;;;;;;;11.70;47.70;;;9.94;49.93;103518.59;8348363;28;20350;-78
2022/03/18 05:24:52;;;;;;;;;;;11.70;47.90;;;9.89;49.81;103522.13;8362908;28;20561;-78
2022/03/18 05:29:15;;;;;;;;;;;11.60;47.50;;;9.97;50.43;103535.97;8354732;28;20016;-78
2022/03/18 05:33:36;;;;;;;;;;;11.60;47.30;;;9.92;50.40;103548.19;8351796;28;20003;-78
2022/03/18 05:37:58;;;;;;;;;;;11.60;47.40;;;9.80;50.42;103532.59;8357369;28;19995;-78
2022/03/18 05:42:20;;;;;;;;;;;11.60;47.30;;;9.87;50.62;103557.81;8351202;28;19921;-78
2022/03/18 05:46:41;;;;;;;;;;;11.40;47.10;;;9.94;50.59;103572.56;8335346;28;19917;-78
2022/03/18 05:51:03;;;;;;;;;;;11.60;47.20;;;9.85;50.55;103557.78;8349035;28;20024;-78
2022/03/18 05:55:26;;;;;;;;;;;11.60;47.00;;;9.85;50.46;103562.16;8343837;28;20007;-81
2022/03/18 05:59:48;;;;;;;;;;;11.40;47.20;;;9.86;50.48;103575.22;8361487;28;20011;-78
2022/03/18 06:04:10;;;;;;;;;;;11.60;47.10;;;9.94;50.24;103596.03;8342666;28;19920;-78
2022/03/18 06:13:12;;;;;;;;;;;11.50;47.40;;;9.92;50.08;103605.63;8346159;28;20011;-78
2022/03/18 06:17:34;;;;;;;;;;;11.40;47.20;;;9.86;50.60;103603.91;8346334;28;20003;-78
2022/03/18 06:21:56;;;;;;;;;;;11.60;47.70;;;9.77;49.79;103595.25;8343861;28;19920;-78
2022/03/18 06:26:18;;;;;;;;;;;11.60;47.20;;;9.87;50.62;103629.13;8339656;28;19924;-79
2022/03/18 06:30:40;;;;;;;;;;;11.60;47.40;;;9.78;50.20;103623.13;8334457;28;20561;-78
2022/03/18 06:35:01;;;;;;;;;;;11.60;47.40;;;9.83;50.10;103636.97;8335864;28;20543;-80
2022/03/18 06:39:24;;;;;;;;;;;11.50;47.30;;;9.89;50.18;103653.50;8346483;28;20012;-80
2022/03/18 06:43:47;;;;;;;;;;;11.50;47.30;;;9.84;50.55;103654.38;8322305;28;19947;-80
2022/03/18 06:48:08;;;;;;;;;;;11.30;47.30;;;9.86;50.25;103661.34;8337463;28;20015;-80
2022/03/18 06:52:33;;;;;;;;;;;11.50;47.50;;;9.83;50.36;103660.47;8332508;28;20027;-80
2022/03/18 06:57:02;;;;;;;;;;;11.60;47.30;;;9.95;50.06;103689.13;8333947;28;20012;-77
2022/03/18 07:01:24;;;;;;;;;;;11.60;47.40;;;9.72;50.39;103653.56;8327444;28;19925;-79
2022/03/18 07:05:46;;;;;;;;;;;11.60;47.40;;;9.92;50.18;103697.84;8333218;28;20016;-80
2022/03/18 07:10:08;;;;;;;;;;;11.60;47.30;;;9.84;50.34;103688.31;8338659;28;20020;-79
2022/03/18 07:14:29;;;;;;;;;;;11.60;47.10;;;9.89;50.10;103689.16;8345653;28;20016;-79
2022/03/18 07:18:51;;;;;;;;;;;11.60;47.70;;;9.93;50.06;103696.97;8348990;28;20650;-79
2022/03/18 07:23:14;;;;;;;;;;;11.60;47.20;;;9.95;50.14;103702.19;8351754;28;19928;-79
2022/03/18 07:27:36;;;;;;;;;;;11.60;47.20;;;9.96;49.88;103714.34;8346364;28;19923;-80
2022/03/18 07:31:58;;;;;;;;;;;11.60;47.30;;;9.95;49.84;103712.63;8340843;28;19916;-80
2022/03/18 07:36:20;;;;;;;;;;;11.60;47.00;;;9.94;50.72;103716.13;8363675;28;20012;-79
2022/03/18 07:40:41;;;;;;;;;;;11.70;47.00;;;9.95;50.30;103718.72;8345817;28;19917;-79
2022/03/18 07:45:03;;;;;;;;;;;11.70;47.00;;;9.95;50.78;103723.06;8362258;28;19924;-79
2022/03/18 07:49:25;;;;;;;;;;;11.70;47.10;;;9.96;49.88;103736.13;8348824;28;20007;-78
2022/03/18 07:53:46;;;;;;;;;;;11.70;47.00;;;10.00;50.30;103743.94;8361273;28;20011;-79
2022/03/18 07:58:08;;;;;;;;;;;11.70;46.90;;;9.92;50.37;103737.00;8358024;28;20003;-81
2022/03/18 08:02:29;;;;;;;;;;;11.70;46.80;;;10.04;50.32;103751.72;8355010;28;19920;-79
2022/03/18 08:06:51;;;;;;;;;;;11.60;46.80;;;10.11;50.47;103776.97;8353217;28;19917;-79
2022/03/18 08:11:14;;;;;;;;;;;11.60;46.80;;;10.03;50.54;103751.75;8354611;28;19923;-79
2022/03/18 08:15:35;;;;;;;;;;;11.70;46.80;;;10.12;50.32;103768.22;8324174;28;20229;-80
2022/03/18 08:19:57;;;;;;;;;;;11.70;47.10;;;10.17;50.47;103779.53;8356774;28;20500;-79
2022/03/18 08:24:19;;;;;;;;;;;11.80;46.90;;;10.27;50.23;103780.41;8332331;28;19925;-79
2022/03/18 08:28:43;;;;;;;;;;;11.90;47.20;;;10.16;50.72;103759.53;8351214;28;20011;-79
2022/03/18 08:33:04;;;;;;;;;;;11.90;47.20;;;10.30;50.43;103769.06;8351406;28;20389;-80
2022/03/18 08:42:07;;;;;;;;;;;12.10;47.10;;;10.62;50.67;103808.97;8338991;28;19920;-78
2022/03/18 08:46:28;;;;;;;;;;;12.30;47.20;;;10.69;50.51;103801.06;8349454;28;19917;-76
2022/03/18 08:50:50;;;;;;;;;;;12.10;47.10;;;10.87;50.11;103803.56;8351946;28;19923;-76
2022/03/18 08:55:12;;;;;;;;;;;12.40;47.00;;;10.88;51.06;103810.53;8361144;28;20023;-76
2022/03/18 08:59:34;;;;;;;;;;;12.50;46.90;;;10.93;50.56;103811.38;8336959;28;19921;-77
2022/03/18 09:03:55;;;;;;;;;;;12.70;46.90;;;11.15;50.62;103830.41;8355056;28;19921;-76
2022/03/18 09:08:18;;;;;;;;;;;12.60;46.80;;;11.24;50.42;103827.72;8326802;28;19917;-78
2022/03/18 09:12:45;;;;;;;;;;;12.90;46.80;;;11.28;50.31;103826.78;8346392;28;20251;-78
2022/03/18 09:17:06;;;;;;;;;;;12.90;46.80;;;11.44;50.47;103832.75;8350660;28;19923;-78
2022/03/18 09:21:28;;;;;;;;;;;13.20;46.80;;;11.60;50.58;103837.88;8344454;28;19999;-79
2022/03/18 09:25:50;;;;;;;;;;;13.30;46.70;;;11.65;50.54;103836.94;8351327;28;20441;-78
2022/03/18 09:30:14;;;;;;;;;;;13.40;46.50;;;11.70;50.67;103850.00;8343623;28;21542;-78
2022/03/18 09:34:35;;;;;;;;;;;13.50;46.40;;;11.76;50.53;103843.81;8350841;28;20554;-79
2022/03/18 09:38:57;;;;;;;;;;;13.50;46.40;;;11.82;50.50;103846.38;8350563;28;20304;-80
2022/03/18 09:43:18;;;;;;;;;;;13.70;46.50;;;11.95;50.33;103861.97;8356479;28;20400;-81
2022/03/18 09:47:41;;;;;;;;;;;13.80;46.20;;;12.05;50.18;103880.22;8350826;28;20459;-82
2022/03/18 09:52:04;;;;;;;;;;;13.80;46.30;;;12.10;50.08;103881.06;8343991;28;19927;-81
2022/03/18 09:56:26;;;;;;;;;;;13.80;46.20;;;12.13;50.59;103875.78;8338783;28;19916;-81
2022/03/18 10:00:50;;;;;;;;;;;13.90;46.30;;;12.13;50.63;103863.53;8360633;28;20011;-81
2022/03/18 10:05:14;;;;;;;;;;;14.00;46.30;;;12.28;50.30;103875.59;8327770;28;20321;-81
2022/03/18 10:09:36;;;;;;;;;;;14.10;46.20;;;12.36;50.10;103878.97;8322632;28;20004;-81
2022/03/18 10:14:03;;;;;;;;;;;14.10;46.20;;;12.55;50.18;103900.59;8355918;28;20003;-81
2022/03/18 10:18:24;;;;;;;;;;;14.20;46.20;;;12.59;50.19;103880.47;8340154;28;19996;-81
2022/03/18 10:22:46;;;;;;;;;;;14.30;46.10;;;12.60;50.43;103861.22;8353667;28;19927;-81
2022/03/18 10:27:19;;;;;;;;;;;14.40;46.20;;;12.73;50.47;103856.69;8350732;28;20368;-80
2022/03/18 10:31:57;;;;;;;;;;;14.60;46.00;;;13.06;50.15;103892.03;8343190;28;19923;-82
2022/03/18 10:41:07;;;;;;;;;;;14.80;44.90;;;13.16;49.95;103866.53;8352984;28;20464;-80
2022/03/18 10:45:29;;;;;;;;;;;15.00;45.30;;;13.21;50.00;103873.44;8344468;28;20295;-81
2022/03/18 10:49:50;;;;;;;;;;;15.00;45.50;;;13.20;50.06;103847.22;8358494;28;20460;-79
2022/03/18 10:54:12;;;;;;;;;;;15.10;44.90;;;13.39;49.89;103855.69;8351572;28;20286;-79
2022/03/18 10:58:33;;;;;;;;;;;15.10;44.70;;;13.59;49.76;103871.13;8358115;28;20019;-80
2022/03/18 11:02:58;;;;;;;;;;;15.30;45.10;;;13.59;49.98;103858.84;8354107;28;19921;-84
2022/03/18 11:07:34;;;;;;;;;;;15.40;45.00;;;13.67;49.43;103861.34;8341953;28;20383;-81
2022/03/18 11:11:55;;;;;;;;;;;15.50;45.20;;;13.74;49.47;103862.94;8335432;28;19939;-80
2022/03/18 11:16:25;;;;;;;;;;;15.60;45.20;;;13.79;49.63;103869.00;8342670;28;20020;-81
2022/03/18 11:20:50;;;;;;;;;;;15.60;44.30;;;13.83;49.41;103865.44;8352426;28;19917;-80
2022/03/18 11:25:14;;;;;;;;;;;15.70;44.50;;;14.09;49.69;103888.56;8357485;28;19925;-87
2022/03/18 11:29:35;;;;;;;;;;;15.70;44.60;;;14.13;49.48;103873.63;8333380;28;19922;-81
2022/03/18 11:34:10;;;;;;;;;;;15.90;44.90;;;14.30;49.68;103881.16;8337446;28;20008;-79
2022/03/18 11:38:51;;;;;;;;;;;16.00;44.70;;;14.32;49.31;103874.13;8358387;28;20584;-80
2022/03/18 11:43:31;;;;;;;;;;;16.10;44.90;;;14.46;49.35;103874.69;8342181;28;19920;-80
2022/03/18 11:47:53;;;;;;;;;;;16.10;43.50;;;14.48;49.14;103865.03;8337384;28;20183;-83
2022/03/18 11:52:15;;;;;;;;;;;16.10;43.70;;;14.37;49.35;103843.34;8358409;28;20015;-79
2022/03/18 11:56:39;;;;;;;;;;;16.30;43.30;;;14.57;49.28;103874.50;8360605;28;20023;-79
2022/03/18 12:01:01;;;;;;;;;;;16.30;44.20;;;14.64;48.98;103864.72;8355456;28;19923;-78
2022/03/18 12:05:28;;;;;;;;;;;16.30;44.10;;;14.72;49.32;103853.13;8363658;28;20461;-79
2022/03/18 12:10:04;;;;;;;;;;;16.40;44.20;;;14.67;49.26;103830.47;8332580;28;20007;-79
2022/03/18 12:14:25;;;;;;;;;;;16.50;44.10;;;14.79;49.01;103859.97;8347780;28;20015;-79
2022/03/18 12:18:47;;;;;;;;;;;16.50;42.70;;;14.71;48.46;103840.00;8331605;28;20131;-79
2022/03/18 12:23:09;;;;;;;;;;;16.50;43.10;;;14.85;48.93;103858.09;8346528;28;19921;-79
2022/03/18 12:27:36;;;;;;;;;;;16.50;42.00;;;14.70;48.70;103817.25;8327680;28;20012;-79
2022/03/18 12:32:09;;;;;;;;;;;16.60;43.20;;;14.89;48.36;103850.09;8350335;28;20003;-78
2022/03/18 12:36:30;;;;;;;;;;;16.50;43.00;;;14.99;48.34;103841.09;8349521;28;19916;-78
2022/03/18 12:40:57;;;;;;;;;;;16.60;43.20;;;15.07;48.40;103840.03;8352274;28;19924;-78
2022/03/18 12:45:29;;;;;;;;;;;16.70;43.30;;;15.00;48.14;103827.03;8348333;28;19927;-78
2022/03/18 12:49:51;;;;;;;;;;;16.80;42.60;;;15.15;48.43;103838.06;8350703;28;20463;-79
2022/03/18 12:54:13;;;;;;;;;;;16.90;43.90;;;15.19;48.26;103837.97;8349103;28;19923;-78
2022/03/18 12:59:01;;;;;;;;;;;16.80;42.00;;;15.26;48.07;103850.09;8340066;28;20020;-79
2022/03/18 13:03:30;;;;;;;;;;;16.90;42.20;;;15.31;48.40;103851.72;8358019;28;20027;-79
2022/03/18 13:07:55;;;;;;;;;;;16.90;42.40;;;15.35;48.16;103849.00;8353837;28;19999;-79
2022/03/18 13:12:28;;;;;;;;;;;17.00;42.00;;;15.23;47.77;103820.34;8355590;28;19924;-79
2022/03/18 13:16:50;;;;;;;;;;;17.00;42.20;;;15.35;48.22;103842.88;8351071;28;20007;-78
2022/03/18 13:21:11;;;;;;;;;;;17.00;41.80;;;15.44;47.99;103842.63;8343945;28;19923;-78
2022/03/18 13:25:36;;;;;;;;;;;17.10;41.30;;;15.40;48.23;103846.25;8337476;28;20559;-80
2022/03/18 13:34:38;;;;;;;;;;;17.10;43.00;;;15.45;47.67;103849.63;8343429;28;20504;-79
2022/03/18 13:39:06;;;;;;;;;;;17.10;42.30;;;15.49;47.68;103873.19;8350537;28;20387;-79
2022/03/18 13:43:31;;;;;;;;;;;17.10;40.20;;;15.32;47.73;103828.00;8338489;28;19927;-79
2022/03/18 13:47:52;;;;;;;;;;;17.10;41.50;;;15.44;47.43;103848.75;8357224;28;20007;-79
2022/03/18 13:52:14;;;;;;;;;;;17.10;40.50;;;15.49;47.38;103859.16;8354044;28;20027;-79
2022/03/18 13:56:39;;;;;;;;;;;17.00;41.20;;;15.34;47.61;103826.22;8352877;28;20437;-79
2022/03/18 14:01:08;;;;;;;;;;;17.10;41.70;;;15.56;47.30;103859.91;8352344;28;20011;-78
2022/03/18 14:05:32;;;;;;;;;;;17.10;41.00;;;15.58;47.35;103860.69;8348769;28;19929;-79
2022/03/18 14:10:03;;;;;;;;;;;17.10;40.30;;;15.43;47.28;103852.28;8347573;28;20008;-79
2022/03/18 14:14:29;;;;;;;;;;;17.20;40.40;;;15.54;46.92;103865.19;8336620;28;20832;-78
2022/03/18 14:18:50;;;;;;;;;;;17.10;39.60;;;15.55;46.97;103859.00;8340215;28;20011;-78
2022/03/18 14:23:22;;;;;;;;;;;17.10;39.30;;;15.39;46.76;103824.31;8347690;28;19925;-78
2022/03/18 14:27:47;;;;;;;;;;;17.20;40.80;;;15.43;46.64;103843.53;8355124;28;20019;-79
2022/03/18 14:32:08;;;;;;;;;;;17.10;39.10;;;15.54;46.98;103864.34;8360525;28;20007;-79
2022/03/18 14:36:32;;;;;;;;;;;17.20;39.20;;;15.59;46.87;103872.97;8357639;28;20007;-79
2022/03/18 14:41:01;;;;;;;;;;;17.10;38.10;;;15.58;46.84;103864.22;8359550;28;20432;-78
2022/03/18 14:45:23;;;;;;;;;;;17.20;37.90;;;15.59;46.66;103862.44;8354385;28;20015;-78
2022/03/18 14:49:44;;;;;;;;;;;17.10;38.10;;;15.59;46.50;103870.34;8357944;28;19939;-79
2022/03/18 14:54:06;;;;;;;;;;;17.20;38.10;;;15.43;46.09;103841.75;8363697;28;20015;-79
2022/03/18 14:58:28;;;;;;;;;;;17.10;38.40;;;15.49;46.33;103844.22;8369284;28;20023;-78
2022/03/18 15:02:49;;;;;;;;;;;17.10;37.60;;;15.43;46.07;103847.03;8361279;28;19920;-78
2022/03/18 15:07:11;;;;;;;;;;;17.10;38.10;;;15.49;46.08;103857.41;8351084;28;20004;-78
2022/03/18 15:11:37;;;;;;;;;;;17.10;35.00;;;15.43;45.90;103857.56;8343172;28;20024;-78
2022/03/18 15:15:59;;;;;;;;;;;17.00;35.50;;;15.43;45.92;103864.59;8356997;28;20007;-78
2022/03/18 15:20:20;;;;;;;;;;;17.00;37.80;;;15.25;45.49;103831.69;8346952;28;20378;-79
2022/03/18 15:24:42;;;;;;;;;;;17.00;39.70;;;15.14;45.24;103812.66;8360671;28;19927;-79
2022/03/18 15:29:04;;;;;;;;;;;16.90;38.60;;;15.27;45.27;103843.06;8365172;28;20015;-79
2022/03/18 15:33:26;;;;;;;;;;;16.90;37.30;;;15.22;45.35;103845.78;8347498;28;20007;-78
2022/03/18 15:37:48;;;;;;;;;;;16.90;38.60;;;15.14;45.27;103833.72;8361455;28;20011;-78
2022/03/18 15:42:10;;;;;;;;;;;16.70;39.50;;;15.26;45.65;103855.34;8352350;28;19923;-78
2022/03/18 15:46:33;;;;;;;;;;;16.80;37.90;;;15.16;45.27;103853.84;8332525;28;20393;-78
2022/03/18 15:50:58;;;;;;;;;;;16.80;37.90;;;15.15;45.45;103845.97;8355661;28;20007;-78
2022/03/18 15:55:20;;;;;;;;;;;16.80;38.70;;;15.16;45.02;103874.91;8347163;28;20015;-78
2022/03/18 15:59:42;;;;;;;;;;;16.80;38.70;;;15.03;45.46;103860.31;8346977;28;19917;-78
2022/03/18 16:04:04;;;;;;;;;;;16.70;38.20;;;15.01;45.33;103865.63;8358873;28;20424;-79
2022/03/18 16:08:28;;;;;;;;;;;16.70;36.40;;;14.95;45.42;103868.38;8342621;28;19999;-79
2022/03/18 16:12:49;;;;;;;;;;;16.60;38.90;;;15.03;45.28;103887.47;8338225;28;20015;-78
2022/03/18 16:17:11;;;;;;;;;;;16.60;37.50;;;14.95;45.05;103892.06;8350273;28;20003;-78
2022/03/18 16:21:32;;;;;;;;;;;16.60;39.40;;;14.91;45.15;103900.09;8334599;28;20012;-78
2022/03/18 16:25:54;;;;;;;;;;;16.50;38.60;;;14.86;45.13;103907.22;8352754;28;19927;-78
2022/03/18 16:30:17;;;;;;;;;;;16.50;37.80;;;14.77;45.10;103906.50;8362558;28;20012;-78
2022/03/18 16:34:39;;;;;;;;;;;16.40;37.90;;;14.69;45.22;103911.06;8348602;28;19924;-78
2022/03/18 16:39:01;;;;;;;;;;;16.60;38.60;;;14.56;44.90;103904.34;8356579;28;20030;-78
2022/03/18 16:43:24;;;;;;;;;;;16.30;35.70;;;14.49;44.99;103913.22;8330808;28;20283;-78
2022/03/18 16:52:26;;;;;;;;;;;16.20;37.20;;;14.39;44.83;103936.19;8342211;28;19923;-78
2022/03/18 16:56:49;;;;;;;;;;;16.10;36.90;;;14.46;44.72;103966.72;8358883;28;20004;-78
2022/03/18 17:01:13;;;;;;;;;;;16.00;38.30;;;14.34;44.72;103961.72;8350757;28;20389;-78
2022/03/18 17:05:35;;;;;;;;;;;15.90;37.40;;;14.28;44.96;103972.34;8353886;28;19920;-78
2022/03/18 17:09:57;;;;;;;;;;;15.80;37.60;;;14.22;44.95;103981.19;8344218;28;19917;-78
2022/03/18 17:14:18;;;;;;;;;;;15.80;38.10;;;14.04;44.77;103963.13;8353204;28;19917;-78
2022/03/18 17:18:47;;;;;;;;;;;15.60;38.50;;;13.97;44.75;103961.53;8338176;28;19917;-78
2022/03/18 17:23:10;;;;;;;;;;;15.60;39.20;;;13.89;44.75;103972.16;8351814;28;19921;-78
2022/03/18 17:27:32;;;;;;;;;;;15.50;38.60;;;13.98;44.74;103994.78;8342392;28;20011;-78
2022/03/18 17:31:54;;;;;;;;;;;15.40;39.10;;;13.90;44.97;103992.28;8357316;28;20011;-78
2022/03/18 17:36:19;;;;;;;;;;;15.40;39.50;;;13.81;44.77;103984.56;8349357;28;20007;-78
2022/03/18 17:40:40;;;;;;;;;;;15.40;39.70;;;13.80;44.87;103990.69;8354136;28;20019;-78
2022/03/18 17:45:02;;;;;;;;;;;15.30;39.70;;;13.75;44.75;103997.81;8347413;28;19930;-78
2022/03/18 17:49:23;;;;;;;;;;;15.20;39.90;;;13.69;44.75;104002.25;8355632;28;20000;-78
2022/03/18 17:53:45;;;;;;;;;;;15.20;40.00;;;13.59;44.94;104011.16;8349800;28;19923;-78
2022/03/18 17:58:07;;;;;;;;;;;15.10;40.10;;;13.46;44.93;104006.97;8340373;28;20388;-78
2022/03/18 18:02:29;;;;;;;;;;;15.00;40.20;;;13.47;44.93;104030.59;8329172;28;20631;-78
2022/03/18 18:06:54;;;;;;;;;;;14.70;40.10;;;13.40;45.04;104039.44;8353447;28;20288;-78
2022/03/18 18:11:16;;;;;;;;;;;14.90;40.30;;;13.28;44.87;104035.25;8352555;28;20007;-78
2022/03/18 18:15:38;;;;;;;;;;;14.80;40.40;;;12.79;44.88;103966.72;8342912;28;19923;-78
2022/03/18 18:24:39;;;;;;;;;;;14.60;40.50;;;13.02;44.84;104037.28;8323496;28;19920;-80
2022/03/18 18:29:01;;;;;;;;;;;14.60;40.40;;;13.01;44.97;104046.88;8299391;28;20300;-79
2022/03/18 18:33:24;;;;;;;;;;;14.50;40.40;;;12.70;45.10;104004.44;8335637;28;19921;-79
2022/03/18 18:37:45;;;;;;;;;;;14.10;40.30;;;12.73;44.92;104043.72;8329140;28;19931;-79
2022/03/18 18:42:08;;;;;;;;;;;14.30;40.40;;;12.57;44.70;104035.16;8333972;28;19935;-79
2022/03/18 18:46:29;;;;;;;;;;;14.10;40.30;;;12.48;44.83;104044.88;8318337;28;19929;-78
2022/03/18 18:50:51;;;;;;;;;;;14.00;40.30;;;12.40;44.99;104060.69;8300235;28;19921;-80
2022/03/18 18:55:13;;;;;;;;;;;13.90;40.30;;;12.13;44.83;104027.72;8312839;28;19927;-79
2022/03/18 18:59:34;;;;;;;;;;;13.80;40.40;;;12.20;44.91;104066.06;8331765;28;20362;-79
2022/03/18 19:03:56;;;;;;;;;;;13.70;40.50;;;12.03;44.65;104037.41;8310499;28;20360;-80
2022/03/18 19:08:18;;;;;;;;;;;13.60;40.60;;;12.00;45.09;104068.00;8328300;28;19921;-80
2022/03/18 19:12:39;;;;;;;;;;;13.40;40.60;;;11.86;45.33;104061.09;8316211;28;19940;-79
2022/03/18 19:17:01;;;;;;;;;;;13.40;40.70;;;11.81;44.87;104060.22;8327970;28;19923;-78
2022/03/18 19:21:23;;;;;;;;;;;13.30;40.80;;;11.70;44.72;104070.78;8320925;28;19921;-80
2022/03/18 19:25:45;;;;;;;;;;;13.20;40.80;;;11.63;44.94;104073.44;8331026;28;20564;-80
2022/03/18 19:30:10;;;;;;;;;;;13.40;40.90;;;11.49;45.22;104078.75;8333332;28;20534;-79
2022/03/18 19:34:32;;;;;;;;;;;13.00;40.60;;;11.13;44.99;104041.41;8331612;28;19925;-80
2022/03/18 19:38:53;;;;;;;;;;;12.90;40.70;;;11.04;44.99;104051.88;8331341;28;19917;-80
2022/03/18 19:43:15;;;;;;;;;;;12.70;40.80;;;11.17;45.42;104084.97;8335371;28;19924;-80
2022/03/18 19:47:37;;;;;;;;;;;12.60;40.90;;;11.11;44.76;104087.63;8317689;28;19916;-80
2022/03/18 19:51:58;;;;;;;;;;;12.50;40.90;;;10.93;45.07;104071.97;8338100;28;19970;-80
2022/03/18 20:01:09;;;;;;;;;;;12.40;40.90;;;10.65;44.87;104081.63;8351152;28;20464;-80
2022/03/18 20:05:30;;;;;;;;;;;12.20;40.80;;;10.65;45.24;104094.69;8331013;28;19925;-79
2022/03/18 20:09:52;;;;;;;;;;;12.10;40.90;;;10.55;44.98;104099.06;8343591;28;20008;-80
2022/03/18 20:14:17;;;;;;;;;;;11.90;40.90;;;10.43;45.12;104099.06;8345153;28;20530;-79
2022/03/18 20:18:39;;;;;;;;;;;12.00;41.10;;;10.44;45.06;104100.81;8335295;28;20468;-79
2022/03/18 20:23:00;;;;;;;;;;;11.90;41.10;;;10.33;45.39;104103.41;8333909;28;20362;-80
2022/03/18 20:27:23;;;;;;;;;;;11.80;41.10;;;10.22;44.76;104090.31;8327606;28;19947;-80
2022/03/18 20:31:49;;;;;;;;;;;11.70;41.20;;;10.25;45.01;104105.13;8319340;28;19988;-79
2022/03/18 20:36:11;;;;;;;;;;;11.70;41.20;;;10.17;45.46;104100.75;8320428;28;19928;-81